createdAt,value
2019-04-14T00:02:29.266Z,63.0
2019-04-14T00:07:30.168Z,62.5
2019-04-14T00:12:27.894Z,62.7
2019-04-14T00:17:28.952Z,62.6
2019-04-14T00:22:32.098Z,62.7
2019-04-14T00:27:28.551Z,62.8
2019-04-14T00:32:28.997Z,62.7
2019-04-14T00:37:27.738Z,62.8
2019-04-14T00:42:29.798Z,63.0
2019-04-14T00:47:29.359Z,62.8
2019-04-14T00:52:28.215Z,62.9
2019-04-14T00:57:29.408Z,63.0
2019-04-14T01:02:27.944Z,63.1
2019-04-14T01:07:28.741Z,63.1
2019-04-14T01:12:28.247Z,63.1
2019-04-14T01:17:29.072Z,63.0
2019-04-14T01:22:29.159Z,63.3
2019-04-14T01:27:30.312Z,63.4
2019-04-14T01:32:28.762Z,63.3
2019-04-14T01:37:29.480Z,63.3
2019-04-14T01:42:29.194Z,63.2
2019-04-14T01:47:27.572Z,63.2
2019-04-14T01:52:28.180Z,63.3
2019-04-14T01:57:28.859Z,63.3
2019-04-14T02:02:29.539Z,63.3
2019-04-14T02:07:28.239Z,63.3
2019-04-14T02:12:28.253Z,63.3
2019-04-14T02:17:28.948Z,63.3
2019-04-14T02:22:27.349Z,63.6
2019-04-14T02:27:28.134Z,63.5
2019-04-14T02:32:56.647Z,63.4
2019-04-14T02:43:37.363Z,63.4
2019-04-14T02:53:32.330Z,63.5
2019-04-14T02:58:36.016Z,63.4
2019-04-14T03:08:31.082Z,63.3
2019-04-14T03:18:49.831Z,63.4
2019-04-14T03:22:55.122Z,63.2
2019-04-14T03:28:25.711Z,63.2
2019-04-14T03:43:30.104Z,63.5
2019-04-14T03:48:57.773Z,63.4
2019-04-14T03:53:21.194Z,63.3
2019-04-14T03:57:31.168Z,63.2
2019-04-14T04:02:27.590Z,63.2
2019-04-14T04:07:30.327Z,63.5
2019-04-14T04:12:29.688Z,63.5
2019-04-14T04:17:28.003Z,63.4
2019-04-14T04:22:28.575Z,63.4
2019-04-14T04:27:29.158Z,63.6
2019-04-14T04:32:28.391Z,63.6
2019-04-14T04:37:28.344Z,63.6
2019-04-14T04:42:29.078Z,63.6
2019-04-14T04:47:32.399Z,63.5
2019-04-14T04:52:28.482Z,63.4
2019-04-14T04:57:28.902Z,63.7
2019-04-14T05:02:29.165Z,63.4
2019-04-14T05:07:28.080Z,63.6
2019-04-14T05:12:28.758Z,63.6
2019-04-14T05:17:29.780Z,63.6
2019-04-14T05:22:29.345Z,63.6
2019-04-14T05:27:28.097Z,63.6
2019-04-14T05:32:28.815Z,63.5
2019-04-14T05:37:29.395Z,63.6
2019-04-14T05:42:30.429Z,63.7
2019-04-14T05:47:28.755Z,63.6
2019-04-14T05:52:27.788Z,63.6
2019-04-14T05:57:28.799Z,63.7
2019-04-14T06:02:30.887Z,63.5
2019-04-14T06:07:28.137Z,63.5
2019-04-14T06:12:28.191Z,63.6
2019-04-14T06:17:28.581Z,63.6
2019-04-14T06:22:28.899Z,63.3
2019-04-14T06:27:28.164Z,63.2
2019-04-14T06:32:28.335Z,63.3
2019-04-14T06:37:28.266Z,63.3
2019-04-14T06:42:28.034Z,63.2
2019-04-14T06:47:28.288Z,63.3
2019-04-14T06:52:28.324Z,63.3
2019-04-14T06:57:27.760Z,63.3
2019-04-14T07:02:28.092Z,63.4
2019-04-14T07:07:29.130Z,63.3
2019-04-14T07:12:28.253Z,63.3
2019-04-14T07:17:29.795Z,63.5
2019-04-14T07:22:29.742Z,63.4
2019-04-14T07:27:28.104Z,63.3
2019-04-14T07:32:28.651Z,63.4
2019-04-14T07:37:28.441Z,63.6
2019-04-14T07:42:28.764Z,63.4
2019-04-14T07:47:28.381Z,63.1
2019-04-14T07:52:28.968Z,63.0
2019-04-14T07:57:27.660Z,63.2
2019-04-14T08:02:28.218Z,63.1
2019-04-14T08:07:28.169Z,63.6
2019-04-14T08:12:28.801Z,63.2
2019-04-14T08:17:28.885Z,63.3
2019-04-14T08:22:28.604Z,63.1
2019-04-14T08:27:28.021Z,62.8
2019-04-14T08:32:30.245Z,62.7
2019-04-14T08:37:28.782Z,63.2
2019-04-14T08:42:29.043Z,63.3
2019-04-14T08:47:27.920Z,63.1
2019-04-14T08:52:28.853Z,62.4
2019-04-14T08:57:28.586Z,62.3
2019-04-14T09:02:27.488Z,62.3
2019-04-14T09:07:28.751Z,62.8
2019-04-14T09:12:28.557Z,63.0
2019-04-14T09:17:28.367Z,62.6
2019-04-14T09:22:28.000Z,62.8
2019-04-14T09:27:27.609Z,62.1
2019-04-14T09:32:27.938Z,62.1
2019-04-14T09:37:28.412Z,61.7
2019-04-14T09:42:28.826Z,62.2
2019-04-14T09:47:28.428Z,62.2
2019-04-14T09:52:27.411Z,62.6
2019-04-14T09:57:28.623Z,62.9
2019-04-14T10:02:28.305Z,62.8
2019-04-14T10:07:28.562Z,63.0
2019-04-14T10:12:28.459Z,63.3
2019-04-14T10:17:29.733Z,62.9
2019-04-14T10:22:34.554Z,63.0
2019-04-14T10:27:28.102Z,62.4
2019-04-14T10:32:29.863Z,61.2
2019-04-14T10:37:28.695Z,61.5
2019-04-14T10:42:28.851Z,60.8
2019-04-14T10:47:27.937Z,60.6
2019-04-14T10:52:27.948Z,61.3
2019-04-14T10:57:27.759Z,62.6
2019-04-14T11:02:28.090Z,62.4
2019-04-14T11:07:28.667Z,62.2
2019-04-14T11:12:28.294Z,62.6
2019-04-14T11:17:29.126Z,62.8
2019-04-14T11:22:28.485Z,62.8
2019-04-14T11:27:27.912Z,62.3
2019-04-14T11:32:28.484Z,62.9
2019-04-14T11:37:28.653Z,62.9
2019-04-14T11:42:28.341Z,62.6
2019-04-14T11:47:28.587Z,61.6
2019-04-14T11:52:28.040Z,61.0
2019-04-14T11:57:29.142Z,61.9
2019-04-14T12:02:29.712Z,61.6
2019-04-14T12:07:29.941Z,61.3
2019-04-14T12:12:28.811Z,61.2
2019-04-14T12:17:28.728Z,61.8
2019-04-14T12:22:28.251Z,61.6
2019-04-14T12:27:28.168Z,62.2
2019-04-14T12:32:28.663Z,62.2
2019-04-14T12:37:29.118Z,61.8
2019-04-14T12:42:29.950Z,61.6
2019-04-14T12:47:28.644Z,61.6
2019-04-14T12:52:28.219Z,62.4
2019-04-14T12:57:28.630Z,61.0
2019-04-14T13:02:28.144Z,61.0
2019-04-14T13:07:28.940Z,59.8
2019-04-14T13:12:28.785Z,61.9
2019-04-14T13:17:28.871Z,61.9
2019-04-14T13:22:34.526Z,61.0
2019-04-14T13:27:28.596Z,62.1
2019-04-14T13:32:36.528Z,62.6
2019-04-14T13:37:28.404Z,62.4
2019-04-14T13:42:28.407Z,62.4
2019-04-14T13:47:28.914Z,62.1
2019-04-14T13:52:31.291Z,62.1
2019-04-14T13:57:28.523Z,62.5
2019-04-14T14:02:28.504Z,63.7
2019-04-14T14:07:28.554Z,62.9
2019-04-14T14:12:28.243Z,62.9
2019-04-14T14:17:28.545Z,62.8
2019-04-14T14:22:27.959Z,62.1
2019-04-14T14:27:27.812Z,62.0
2019-04-14T14:32:29.179Z,61.0
2019-04-14T14:37:28.356Z,58.1
2019-04-14T14:42:28.769Z,58.7
2019-04-14T14:47:28.104Z,58.7
2019-04-14T14:52:28.220Z,55.7
2019-04-14T14:57:28.166Z,55.7
2019-04-14T15:02:29.361Z,57.9
2019-04-14T15:07:29.219Z,59.0
2019-04-14T15:12:28.551Z,61.1
2019-04-14T15:17:27.751Z,59.1
2019-04-14T15:22:28.385Z,59.1
2019-04-14T15:27:28.435Z,55.6
2019-04-14T15:32:28.559Z,54.5
2019-04-14T15:37:29.307Z,58.1
2019-04-14T15:42:28.974Z,59.4
2019-04-14T15:47:29.736Z,56.2
2019-04-14T15:52:56.588Z,58.8
2019-04-14T15:57:28.212Z,59.4
2019-04-14T16:02:28.591Z,60.2
2019-04-14T16:07:28.655Z,61.5
2019-04-14T16:12:29.810Z,61.7
2019-04-14T16:17:28.717Z,60.6
2019-04-14T16:22:29.030Z,60.6
2019-04-14T16:27:28.467Z,61.0
2019-04-14T16:32:28.198Z,59.4
2019-04-14T16:37:28.638Z,57.3
2019-04-14T16:42:28.792Z,58.7
2019-04-14T16:48:39.509Z,58.7
2019-04-14T16:52:28.828Z,56.7
2019-04-14T16:57:29.545Z,56.3
2019-04-14T17:02:29.186Z,55.5
2019-04-14T17:07:29.158Z,56.0
2019-04-14T17:12:28.175Z,55.9
2019-04-14T17:17:29.412Z,57.0
2019-04-14T17:22:28.493Z,57.6
2019-04-14T17:27:27.647Z,58.0
2019-04-14T17:32:29.274Z,58.3
2019-04-14T17:37:28.874Z,59.4
2019-04-14T17:42:28.752Z,61.0
2019-04-14T17:47:28.913Z,62.1
2019-04-14T17:52:28.591Z,63.3
2019-04-14T17:57:29.431Z,64.0
2019-04-14T18:02:29.337Z,64.4
2019-04-14T18:07:28.510Z,64.8
2019-04-14T18:12:28.102Z,65.0
2019-04-14T18:17:29.263Z,65.2
2019-04-14T18:22:28.744Z,65.2
2019-04-14T18:27:28.880Z,65.2
2019-04-14T18:32:29.535Z,65.3
2019-04-14T18:37:29.319Z,65.2
2019-04-14T18:42:30.237Z,65.2
2019-04-14T18:47:28.333Z,65.2
2019-04-14T18:52:27.945Z,65.2
2019-04-14T18:57:28.921Z,65.3
2019-04-14T19:02:28.438Z,65.3
2019-04-14T19:07:28.735Z,65.2
2019-04-14T19:12:28.625Z,65.1
2019-04-14T19:17:28.933Z,65.1
2019-04-14T19:22:29.376Z,64.9
2019-04-14T19:27:27.778Z,64.7
2019-04-14T19:32:28.636Z,64.6
2019-04-14T19:37:28.307Z,64.4
2019-04-14T19:42:28.024Z,64.2
2019-04-14T19:47:27.570Z,64.1
2019-04-14T19:52:27.798Z,64.0
2019-04-14T19:57:27.890Z,63.8
2019-04-14T20:02:28.083Z,63.6
2019-04-14T20:07:28.072Z,63.7
2019-04-14T20:12:28.161Z,63.5
2019-04-14T20:17:28.478Z,63.4
2019-04-14T20:22:28.474Z,63.6
2019-04-14T20:27:28.575Z,63.6
2019-04-14T20:32:28.389Z,63.8
2019-04-14T20:37:28.251Z,63.7
2019-04-14T20:42:29.490Z,63.9
2019-04-14T20:47:28.369Z,64.0
2019-04-14T20:52:27.607Z,64.0
2019-04-14T20:57:28.593Z,64.1
2019-04-14T21:02:28.740Z,63.8
2019-04-14T21:07:28.957Z,63.6
2019-04-14T21:12:28.490Z,63.7
2019-04-14T21:17:28.507Z,63.6
2019-04-14T21:22:28.036Z,63.4
2019-04-14T21:27:28.366Z,63.5
2019-04-14T21:32:28.284Z,63.6
2019-04-14T21:37:27.597Z,63.4
2019-04-14T21:42:27.876Z,63.2
2019-04-14T21:47:28.273Z,63.2
2019-04-14T21:52:28.609Z,63.3
2019-04-14T21:57:28.323Z,63.3
2019-04-14T22:02:27.519Z,63.2
2019-04-14T22:07:28.485Z,63.2
2019-04-14T22:12:28.528Z,63.2
2019-04-14T22:23:06.544Z,63.4
2019-04-14T22:28:05.111Z,63.3
2019-04-14T22:33:04.139Z,63.2
2019-04-14T22:38:04.379Z,63.0
2019-04-14T22:43:04.248Z,63.0
2019-04-14T22:48:04.806Z,62.9
2019-04-14T22:53:03.766Z,62.7
2019-04-14T22:58:04.569Z,62.7
2019-04-14T23:03:04.612Z,62.6
2019-04-14T23:08:04.671Z,62.6
2019-04-14T23:12:28.213Z,62.5
2019-04-14T23:17:29.081Z,62.5
2019-04-14T23:22:28.305Z,62.4
2019-04-14T23:27:27.357Z,62.4
2019-04-14T23:32:28.212Z,62.6
2019-04-14T23:37:28.528Z,62.6
2019-04-14T23:42:28.400Z,62.5
2019-04-14T23:47:28.810Z,62.6
2019-04-14T23:52:27.870Z,62.6
2019-04-14T23:57:27.994Z,62.6
